Time;durP1;ratioP1;P1;durP2;ratioP2;P2;SDS_P1;SDS_P2;PMS_P1;PMS_P2;Temp;Humidity;BMP_temperature;BMP_pressure;BME280_temperature;BME280_humidity;BME280_pressure;Samples;Min_cycle;Max_cycle;Signal;HPM_P1;HPM_P2
2022/09/02 00:00:31;;;;;;;1.95;1.50;;;13.50;99.90;;;;;;5077601;28;20385;-53
2022/09/02 00:02:56;;;;;;;1.63;1.33;;;13.60;99.90;;;;;;5081809;28;20020;-53
2022/09/02 00:05:22;;;;;;;1.65;1.55;;;13.50;99.90;;;;;;5091518;28;20107;-53
2022/09/02 00:07:47;;;;;;;1.55;1.30;;;13.50;99.90;;;;;;5091434;28;20020;-52
2022/09/02 00:10:13;;;;;;;1.50;1.40;;;13.40;99.90;;;;;;5091427;28;20316;-53
2022/09/02 00:12:39;;;;;;;3.47;1.20;;;13.40;99.90;;;;;;5090795;28;20070;-53
2022/09/02 00:15:04;;;;;;;2.15;1.30;;;13.40;99.90;;;;;;5091633;28;20045;-53
2022/09/02 00:17:30;;;;;;;1.60;1.48;;;13.40;99.90;;;;;;5091582;28;20166;-53
2022/09/02 00:19:55;;;;;;;1.63;1.30;;;13.40;99.90;;;;;;5091417;28;20044;-53
2022/09/02 00:22:21;;;;;;;4.00;1.50;;;13.40;99.90;;;;;;5082050;28;20311;-53
2022/09/02 00:24:47;;;;;;;1.75;1.27;;;13.30;99.90;;;;;;5071339;28;20032;-53
2022/09/02 00:27:12;;;;;;;2.95;1.95;;;13.30;99.90;;;;;;5070539;28;20040;-53
2022/09/02 00:29:38;;;;;;;1.70;1.58;;;13.30;99.90;;;;;;5077128;28;20024;-54
2022/09/02 00:32:04;;;;;;;2.55;1.48;;;13.30;99.90;;;;;;5086091;28;20368;-53
2022/09/02 00:34:30;;;;;;;1.88;1.48;;;13.20;99.90;;;;;;5090801;28;20024;-53
2022/09/02 00:36:56;;;;;;;2.20;1.48;;;13.30;99.90;;;;;;5090824;28;20319;-52
2022/09/02 00:39:22;;;;;;;2.30;1.42;;;13.20;99.90;;;;;;5091085;28;20058;-53
2022/09/02 00:41:48;;;;;;;3.40;1.75;;;13.10;99.90;;;;;;5081016;28;20123;-53
2022/09/02 00:44:16;;;;;;;2.85;1.60;;;13.10;99.90;;;;;;5086798;28;20085;-52
2022/09/02 00:46:42;;;;;;;3.15;1.67;;;13.10;99.90;;;;;;5090846;28;20055;-53
2022/09/02 00:49:23;;;;;;;2.42;1.52;;;13.10;99.90;;;;;;5082991;28;20535;-53
2022/09/02 00:52:05;;;;;;;3.65;1.45;;;13.10;99.90;;;;;;5077189;28;20016;-53
2022/09/02 00:54:36;;;;;;;4.75;1.55;;;13.10;99.90;;;;;;5090601;28;20112;-53
2022/09/02 00:57:18;;;;;;;3.55;1.40;;;13.00;99.90;;;;;;5089069;28;20598;-53
2022/09/02 01:00:06;;;;;;;1.90;1.45;;;13.00;99.90;;;;;;5090475;28;20027;-53
2022/09/02 01:02:33;;;;;;;2.97;2.17;;;13.00;99.90;;;;;;5089931;28;20016;-53
2022/09/02 01:04:59;;;;;;;3.60;1.80;;;13.00;99.90;;;;;;5090483;28;20494;-53
2022/09/02 01:07:29;;;;;;;4.10;1.20;;;13.00;99.90;;;;;;5090667;28;20585;-53
2022/09/02 01:09:55;;;;;;;1.63;1.50;;;13.00;99.90;;;;;;5090664;28;20490;-53
2022/09/02 01:12:22;;;;;;;3.65;1.63;;;12.90;99.90;;;;;;5089230;28;20051;-53
2022/09/02 01:14:47;;;;;;;2.90;1.70;;;12.90;99.90;;;;;;5087965;28;20024;-53
2022/09/02 01:17:19;;;;;;;3.67;1.55;;;12.90;99.90;;;;;;5090280;28;20034;-53
2022/09/02 01:19:52;;;;;;;1.65;1.42;;;12.90;99.90;;;;;;5078824;28;20024;-53
2022/09/02 01:22:22;;;;;;;2.40;1.50;;;12.90;99.90;;;;;;5060659;28;20085;-52
2022/09/02 01:24:48;;;;;;;1.70;1.60;;;12.90;99.90;;;;;;5069818;28;20032;-53
2022/09/02 01:27:17;;;;;;;4.10;2.10;;;12.90;99.90;;;;;;5069416;28;20033;-54
2022/09/02 01:29:43;;;;;;;4.63;2.08;;;12.90;99.90;;;;;;5069706;28;20213;-53
2022/09/02 01:32:09;;;;;;;2.40;1.48;;;12.90;99.90;;;;;;5067576;28;20024;-53
2022/09/02 01:34:34;;;;;;;1.55;1.40;;;12.80;99.90;;;;;;5069623;28;20573;-53
2022/09/02 01:37:00;;;;;;;7.40;1.50;;;12.80;99.90;;;;;;5069350;28;20025;-53
2022/09/02 01:39:25;;;;;;;4.53;1.77;;;12.80;99.90;;;;;;5069567;28;20020;-53
2022/09/02 01:41:51;;;;;;;1.95;1.50;;;12.80;99.90;;;;;;5074039;28;20017;-53
2022/09/02 01:44:17;;;;;;;1.70;1.60;;;12.80;99.90;;;;;;5087048;28;20036;-53
2022/09/02 01:46:43;;;;;;;2.97;1.50;;;12.70;99.90;;;;;;5086960;28;20043;-54
2022/09/02 01:49:08;;;;;;;1.70;1.50;;;12.70;99.90;;;;;;5077650;28;20191;-53
2022/09/02 01:51:34;;;;;;;2.38;1.60;;;12.70;99.90;;;;;;5088672;28;20055;-53
2022/09/02 01:54:01;;;;;;;2.75;1.40;;;12.70;99.90;;;;;;5089324;28;20024;-54
2022/09/02 01:56:26;;;;;;;4.72;1.95;;;12.70;99.90;;;;;;5089251;28;20458;-53
2022/09/02 01:58:52;;;;;;;2.28;1.67;;;12.60;99.90;;;;;;5089453;28;20035;-53
2022/09/02 02:01:17;;;;;;;3.33;1.40;;;12.50;99.90;;;;;;5088785;28;20387;-53
2022/09/02 02:03:43;;;;;;;3.80;1.85;;;12.60;99.90;;;;;;5089289;28;20028;-53
2022/09/02 02:06:15;;;;;;;5.22;1.90;;;12.60;99.90;;;;;;5089260;28;20479;-53
2022/09/02 02:08:41;;;;;;;2.30;1.50;;;12.60;99.90;;;;;;5089270;28;20024;-54
2022/09/02 02:11:07;;;;;;;1.45;1.35;;;12.50;99.90;;;;;;5088332;28;20024;-52
2022/09/02 02:13:34;;;;;;;2.38;1.60;;;12.50;99.90;;;;;;5089181;28;20023;-53
2022/09/02 02:15:59;;;;;;;1.60;1.50;;;12.60;99.90;;;;;;5087990;28;20016;-53
2022/09/02 02:18:25;;;;;;;4.03;1.60;;;12.50;99.90;;;;;;5070908;28;20507;-54
2022/09/02 02:20:50;;;;;;;2.05;1.60;;;12.50;99.90;;;;;;5070233;28;20103;-52
2022/09/02 02:23:16;;;;;;;1.85;1.67;;;12.50;99.90;;;;;;5068231;28;20028;-53
2022/09/02 02:25:43;;;;;;;1.95;1.63;;;12.40;99.90;;;;;;5067943;28;20044;-53
2022/09/02 02:28:09;;;;;;;4.10;1.52;;;12.40;99.90;;;;;;5067132;28;20012;-53
2022/09/02 02:30:34;;;;;;;2.20;1.95;;;12.30;99.90;;;;;;5068302;28;20030;-52
2022/09/02 02:33:00;;;;;;;1.83;1.70;;;12.40;99.90;;;;;;5068807;28;20114;-52
2022/09/02 02:35:26;;;;;;;4.43;1.75;;;12.30;99.90;;;;;;5068553;28;20020;-53
2022/09/02 02:37:52;;;;;;;2.50;1.80;;;12.30;99.90;;;;;;5067602;28;20039;-53
2022/09/02 02:40:21;;;;;;;2.20;1.80;;;12.30;99.90;;;;;;5076050;28;20528;-53
2022/09/02 02:42:47;;;;;;;1.95;1.83;;;12.20;99.90;;;;;;5087971;28;20036;-53
2022/09/02 02:45:13;;;;;;;2.67;1.90;;;12.20;99.90;;;;;;5088568;28;20024;-53
2022/09/02 02:47:40;;;;;;;4.20;1.67;;;12.20;99.90;;;;;;5088555;28;20151;-51
2022/09/02 02:50:09;;;;;;;2.35;1.80;;;12.10;99.90;;;;;;5088411;28;20035;-53
2022/09/02 02:52:36;;;;;;;2.38;2.13;;;12.10;99.90;;;;;;5086694;28;20028;-53
2022/09/02 02:55:01;;;;;;;6.60;1.98;;;12.20;99.90;;;;;;5087414;28;20017;-52
2022/09/02 02:57:27;;;;;;;4.13;1.85;;;12.20;99.90;;;;;;5080507;28;20573;-53
2022/09/02 02:59:52;;;;;;;2.17;1.70;;;12.10;99.90;;;;;;5081185;28;20047;-53
2022/09/02 03:02:18;;;;;;;1.88;1.70;;;12.00;99.90;;;;;;5087672;28;20477;-53
2022/09/02 03:04:43;;;;;;;1.90;1.58;;;12.00;99.90;;;;;;5088305;28;20166;-52
2022/09/02 03:07:09;;;;;;;2.10;1.90;;;12.00;99.90;;;;;;5088426;28;20024;-52
2022/09/02 03:09:34;;;;;;;2.20;1.90;;;12.00;99.90;;;;;;5088339;28;20028;-53
2022/09/02 03:12:00;;;;;;;3.95;2.65;;;11.90;99.90;;;;;;5087407;28;20056;-53
2022/09/02 03:14:26;;;;;;;2.58;1.80;;;11.90;99.90;;;;;;5085446;28;20158;-53
2022/09/02 03:16:51;;;;;;;1.90;1.60;;;11.90;99.90;;;;;;5066865;28;20070;-53
2022/09/02 03:19:17;;;;;;;3.25;1.98;;;11.90;99.90;;;;;;5060329;28;20256;-53
2022/09/02 03:21:42;;;;;;;2.42;1.80;;;11.80;99.90;;;;;;5076237;28;20031;-53
2022/09/02 03:24:29;;;;;;;3.53;1.80;;;11.80;99.90;;;;;;5068112;28;20031;-53
2022/09/02 03:26:55;;;;;;;3.30;2.17;;;11.80;99.90;;;;;;5064444;28;20036;-53
2022/09/02 03:29:20;;;;;;;2.40;2.10;;;11.70;99.90;;;;;;5065043;28;20385;-52
2022/09/02 03:31:46;;;;;;;4.35;2.30;;;11.70;99.90;;;;;;5064761;28;20304;-52
2022/09/02 03:34:12;;;;;;;4.13;2.35;;;11.70;99.90;;;;;;5068159;28;20017;-50
2022/09/02 03:36:39;;;;;;;2.47;1.90;;;11.70;99.90;;;;;;5068877;28;20021;-53
2022/09/02 03:39:07;;;;;;;1.80;1.70;;;11.80;99.90;;;;;;5071758;28;20108;-53
2022/09/02 03:41:33;;;;;;;1.92;1.77;;;11.70;99.90;;;;;;5072917;28;20526;-53
2022/09/02 03:44:00;;;;;;;2.85;2.33;;;11.70;99.90;;;;;;5078321;28;20423;-52
2022/09/02 03:46:25;;;;;;;4.00;2.30;;;11.70;99.90;;;;;;5071400;28;20028;-50
2022/09/02 03:48:51;;;;;;;2.78;2.22;;;11.60;99.90;;;;;;5071560;28;20407;-52
2022/09/02 03:51:21;;;;;;;5.15;2.88;;;11.60;99.90;;;;;;5070869;28;20097;-52
2022/09/02 03:53:47;;;;;;;2.40;2.20;;;11.70;99.90;;;;;;5071516;28;20024;-53
2022/09/02 03:56:14;;;;;;;5.43;2.40;;;11.60;99.90;;;;;;5070123;28;20050;-52
2022/09/02 03:58:42;;;;;;;3.85;2.58;;;11.60;99.90;;;;;;5070207;28;20041;-50
2022/09/02 04:01:16;;;;;;;3.10;2.05;;;11.60;99.90;;;;;;5070211;28;20035;-52
2022/09/02 04:03:42;;;;;;;4.53;2.35;;;11.50;99.90;;;;;;5069149;28;20472;-53
2022/09/02 04:06:11;;;;;;;9.18;3.35;;;11.50;99.90;;;;;;5071135;28;20024;-53
2022/09/02 04:08:40;;;;;;;3.78;2.53;;;11.50;99.90;;;;;;5067327;28;20050;-53
2022/09/02 04:11:11;;;;;;;3.10;2.22;;;11.50;99.90;;;;;;5070094;28;20082;-52
2022/09/02 04:13:37;;;;;;;2.42;2.10;;;11.50;99.90;;;;;;5073802;28;20066;-52
2022/09/02 04:16:08;;;;;;;4.47;2.33;;;11.50;99.90;;;;;;5070744;28;20533;-52
2022/09/02 04:18:34;;;;;;;2.78;2.20;;;11.50;99.90;;;;;;5070615;28;20035;-51
2022/09/02 04:21:00;;;;;;;3.63;2.38;;;11.40;99.90;;;;;;5070118;28;20029;-51
2022/09/02 04:23:27;;;;;;;2.85;2.13;;;11.40;99.90;;;;;;5070451;28;20037;-51
2022/09/02 04:25:52;;;;;;;4.22;2.30;;;11.40;99.90;;;;;;5070022;28;20035;-52
2022/09/02 04:28:18;;;;;;;2.67;2.20;;;11.40;99.90;;;;;;5070488;28;20028;-52
2022/09/02 04:30:43;;;;;;;3.35;2.80;;;11.40;99.90;;;;;;5069562;28;20546;-52
2022/09/02 04:33:09;;;;;;;3.88;2.75;;;11.40;99.90;;;;;;5070269;28;20017;-52
2022/09/02 04:35:40;;;;;;;4.82;3.28;;;11.30;99.90;;;;;;5070464;28;20021;-52
2022/09/02 04:38:05;;;;;;;3.63;3.22;;;11.30;99.90;;;;;;5070402;28;20083;-52
2022/09/02 04:40:31;;;;;;;2.40;2.20;;;11.30;99.90;;;;;;5067152;28;20025;-52
2022/09/02 04:42:56;;;;;;;3.83;2.80;;;11.20;99.90;;;;;;5074234;28;20020;-51
2022/09/02 04:45:22;;;;;;;2.47;2.10;;;11.30;99.90;;;;;;5071875;28;20328;-50
2022/09/02 04:47:47;;;;;;;3.78;2.72;;;11.30;99.90;;;;;;5070878;28;20111;-52
2022/09/02 04:50:13;;;;;;;4.72;3.03;;;11.20;99.90;;;;;;5071754;28;20108;-50
2022/09/02 04:52:38;;;;;;;3.05;2.55;;;11.30;99.90;;;;;;5071087;28;20016;-52
2022/09/02 04:55:05;;;;;;;3.30;2.50;;;11.30;99.90;;;;;;5071507;28;20119;-52
2022/09/02 04:57:32;;;;;;;3.45;2.53;;;11.30;99.90;;;;;;5076100;28;20024;-52
2022/09/02 04:59:57;;;;;;;4.28;2.67;;;11.30;99.90;;;;;;5084414;28;20400;-52
2022/09/02 05:02:23;;;;;;;3.25;2.30;;;11.30;99.90;;;;;;5085268;28;20016;-52
2022/09/02 05:04:48;;;;;;;5.90;2.60;;;11.30;99.90;;;;;;5083785;28;20032;-52
2022/09/02 05:07:14;;;;;;;6.40;2.63;;;11.20;99.90;;;;;;5089964;28;20028;-52
2022/09/02 05:09:40;;;;;;;5.28;2.40;;;11.30;99.90;;;;;;5082608;28;20021;-51
2022/09/02 05:12:06;;;;;;;2.63;2.30;;;11.30;99.90;;;;;;5084455;28;20024;-52
2022/09/02 05:14:32;;;;;;;6.38;3.10;;;11.30;99.90;;;;;;5089865;28;20051;-52
2022/09/02 05:16:59;;;;;;;4.10;2.78;;;11.30;99.90;;;;;;5082870;28;20025;-51
2022/09/02 05:19:25;;;;;;;3.03;2.67;;;11.30;99.90;;;;;;5078107;28;20480;-52
2022/09/02 05:21:55;;;;;;;5.93;2.95;;;11.30;99.90;;;;;;5067847;28;20490;-51
2022/09/02 05:24:20;;;;;;;5.50;3.00;;;11.40;99.90;;;;;;5071758;28;20032;-51
2022/09/02 05:26:46;;;;;;;5.07;3.13;;;11.40;99.90;;;;;;5069733;28;20507;-51
2022/09/02 05:29:12;;;;;;;3.70;2.95;;;11.40;99.90;;;;;;5072107;28;20100;-52
2022/09/02 05:31:40;;;;;;;2.70;2.50;;;11.40;99.90;;;;;;5072135;28;20043;-52
2022/09/02 05:34:06;;;;;;;4.90;2.70;;;11.40;99.90;;;;;;5069141;28;20021;-49
2022/09/02 05:36:31;;;;;;;4.18;3.10;;;11.50;99.90;;;;;;5066872;28;20027;-52
2022/09/02 05:38:58;;;;;;;4.00;3.17;;;11.50;99.90;;;;;;5072335;28;20023;-52
2022/09/02 05:41:24;;;;;;;5.25;3.25;;;11.50;99.90;;;;;;5079588;28;20020;-48
2022/09/02 05:43:51;;;;;;;4.63;3.03;;;11.50;99.90;;;;;;5069230;28;20024;-52
2022/09/02 05:46:20;;;;;;;9.07;3.75;;;11.50;99.90;;;;;;5069277;28;20067;-51
2022/09/02 05:49:05;;;;;;;3.58;2.95;;;11.50;99.90;;;;;;5069304;28;20028;-51
2022/09/02 05:51:40;;;;;;;4.00;3.40;;;11.50;99.90;;;;;;5068652;28;20056;-50
2022/09/02 05:54:07;;;;;;;3.67;3.05;;;11.60;99.90;;;;;;5069282;28;20020;-51
2022/09/02 05:56:33;;;;;;;3.00;2.70;;;11.60;99.90;;;;;;5068949;28;20024;-51
2022/09/02 05:58:59;;;;;;;7.20;2.80;;;11.60;99.90;;;;;;5069021;28;20104;-51
2022/09/02 06:01:25;;;;;;;7.25;3.78;;;11.70;99.90;;;;;;5068850;28;20021;-52
2022/09/02 06:03:51;;;;;;;6.07;3.80;;;11.70;99.90;;;;;;5068844;28;20395;-50
2022/09/02 06:06:18;;;;;;;4.28;3.15;;;11.70;99.90;;;;;;5069078;28;20488;-52
2022/09/02 06:08:43;;;;;;;4.63;2.78;;;11.80;99.90;;;;;;5070178;28;20032;-51
2022/09/02 06:11:10;;;;;;;5.07;3.25;;;11.90;99.90;;;;;;5084416;28;20028;-51
2022/09/02 06:13:39;;;;;;;8.38;2.97;;;11.90;99.90;;;;;;5078266;28;20025;-51
2022/09/02 06:16:07;;;;;;;5.85;3.38;;;11.90;99.90;;;;;;5084475;28;20024;-51
2022/09/02 06:18:33;;;;;;;6.03;3.20;;;11.90;99.90;;;;;;5088925;28;20119;-51
2022/09/02 06:21:00;;;;;;;5.18;3.60;;;12.00;99.90;;;;;;5088319;28;20110;-51
2022/09/02 06:23:26;;;;;;;5.78;3.55;;;12.00;99.90;;;;;;5071244;28;20023;-51
2022/09/02 06:25:51;;;;;;;4.57;3.47;;;12.00;99.90;;;;;;5071256;28;20028;-51
2022/09/02 06:28:17;;;;;;;4.30;3.70;;;12.00;99.90;;;;;;5084645;28;20363;-49
2022/09/02 06:30:44;;;;;;;5.05;3.22;;;12.10;99.90;;;;;;5088249;28;20020;-51
2022/09/02 06:33:10;;;;;;;3.92;3.53;;;12.10;99.90;;;;;;5089007;28;19987;-49
2022/09/02 06:35:43;;;;;;;3.42;2.80;;;12.10;99.90;;;;;;5088883;28;20028;-51
2022/09/02 06:38:09;;;;;;;6.05;3.65;;;12.20;99.90;;;;;;5088666;28;20062;-51
2022/09/02 06:40:36;;;;;;;5.88;3.70;;;12.20;99.90;;;;;;5088252;28;20024;-49
2022/09/02 06:43:02;;;;;;;5.00;3.63;;;12.30;99.90;;;;;;5076222;28;20028;-51
2022/09/02 06:45:28;;;;;;;4.05;3.47;;;12.40;99.90;;;;;;5087564;28;20560;-51
2022/09/02 06:47:53;;;;;;;7.55;3.13;;;12.40;99.90;;;;;;5088564;28;20016;-49
2022/09/02 06:50:19;;;;;;;4.95;3.10;;;12.50;99.90;;;;;;5088379;28;20055;-51
2022/09/02 06:52:45;;;;;;;7.28;3.92;;;12.50;99.90;;;;;;5081576;28;20475;-49
2022/09/02 06:55:11;;;;;;;9.00;3.30;;;12.60;99.90;;;;;;5076430;28;20059;-51
2022/09/02 06:57:37;;;;;;;5.45;3.40;;;12.70;99.90;;;;;;5048259;28;20108;-52
2022/09/02 07:00:08;;;;;;;6.15;3.42;;;12.90;99.90;;;;;;5071197;28;20067;-52
2022/09/02 07:02:35;;;;;;;6.47;3.42;;;12.90;99.90;;;;;;5087419;28;20032;-52
2022/09/02 07:05:10;;;;;;;4.82;3.20;;;13.00;99.90;;;;;;5081979;28;20024;-52
2022/09/02 07:07:36;;;;;;;4.95;3.17;;;13.10;99.90;;;;;;5080005;28;20028;-52
2022/09/02 07:10:04;;;;;;;6.45;3.25;;;13.20;99.90;;;;;;5088292;28;20035;-52
2022/09/02 07:12:30;;;;;;;4.72;3.20;;;13.40;99.90;;;;;;5082730;28;20020;-52
2022/09/02 07:14:56;;;;;;;3.92;3.00;;;13.40;99.90;;;;;;5083859;28;20009;-52
2022/09/02 07:17:23;;;;;;;10.80;3.50;;;13.50;99.90;;;;;;5085860;28;20022;-51
2022/09/02 07:19:49;;;;;;;4.93;3.25;;;13.70;99.90;;;;;;5083864;28;20018;-52
2022/09/02 07:22:15;;;;;;;4.75;3.35;;;13.90;99.90;;;;;;5078431;28;20026;-51
2022/09/02 07:24:40;;;;;;;4.82;2.95;;;14.00;99.90;;;;;;5082661;28;20027;-52
2022/09/02 07:27:06;;;;;;;5.47;3.10;;;14.20;99.90;;;;;;5087014;28;20507;-52
2022/09/02 07:29:33;;;;;;;3.92;2.95;;;14.50;99.90;;;;;;5083076;28;20028;-52
2022/09/02 07:31:58;;;;;;;5.32;2.83;;;14.80;99.90;;;;;;5091305;28;20495;-52
2022/09/02 07:34:24;;;;;;;9.10;2.90;;;15.20;99.90;;;;;;5092383;28;20035;-52
2022/09/02 07:36:50;;;;;;;5.20;2.35;;;15.70;99.90;;;;;;5091867;28;20028;-52
2022/09/02 07:39:17;;;;;;;5.35;2.30;;;16.20;99.90;;;;;;5092074;28;20368;-52
2022/09/02 07:41:45;;;;;;;4.07;2.53;;;16.60;99.90;;;;;;5087346;28;20020;-52
2022/09/02 07:44:11;;;;;;;4.90;2.33;;;16.90;99.90;;;;;;5083520;28;20041;-52
2022/09/02 07:46:38;;;;;;;3.15;2.30;;;17.30;99.90;;;;;;5091906;28;20529;-53
2022/09/02 07:49:08;;;;;;;3.25;1.92;;;17.90;99.90;;;;;;5091776;28;20107;-53
2022/09/02 07:51:35;;;;;;;3.33;2.20;;;18.30;99.90;;;;;;5091122;28;20063;-53
2022/09/02 07:54:02;;;;;;;3.72;2.08;;;18.90;99.90;;;;;;5091730;28;20027;-53
2022/09/02 07:56:28;;;;;;;3.33;1.98;;;19.40;99.50;;;;;;5091298;28;20060;-53
2022/09/02 07:58:53;;;;;;;3.10;1.80;;;19.90;98.40;;;;;;5090199;28;20051;-53
2022/09/02 08:01:21;;;;;;;2.13;1.80;;;20.20;97.40;;;;;;5091237;28;20028;-53
2022/09/02 08:03:46;;;;;;;4.97;2.58;;;20.60;95.90;;;;;;5091643;28;20028;-53
2022/09/02 08:06:12;;;;;;;6.10;2.67;;;21.10;94.80;;;;;;5091553;28;20111;-54
2022/09/02 08:08:39;;;;;;;4.90;1.90;;;22.60;91.80;;;;;;5091444;28;20212;-53
2022/09/02 08:11:05;;;;;;;2.70;1.75;;;22.70;91.60;;;;;;5090214;28;20518;-54
2022/09/02 08:13:31;;;;;;;4.10;1.80;;;23.60;87.50;;;;;;5082131;28;20032;-54
2022/09/02 08:15:57;;;;;;;3.72;1.70;;;24.00;86.00;;;;;;5091583;28;20134;-54
2022/09/02 08:18:23;;;;;;;1.95;1.63;;;24.60;84.20;;;;;;5091400;28;20124;-54
2022/09/02 08:20:49;;;;;;;2.40;1.65;;;25.60;79.60;;;;;;5089204;28;20027;-54
2022/09/02 08:23:15;;;;;;;2.88;1.55;;;26.80;75.50;;;;;;5074476;28;20471;-53
2022/09/02 08:25:42;;;;;;;5.55;1.58;;;27.70;70.60;;;;;;5071082;28;20421;-53
2022/09/02 08:28:08;;;;;;;2.42;1.35;;;28.60;68.40;;;;;;5069436;28;20028;-53
2022/09/02 08:30:34;;;;;;;3.75;1.48;;;29.70;64.40;;;;;;5070574;28;20056;-53
2022/09/02 08:32:59;;;;;;;3.17;1.50;;;30.70;60.40;;;;;;5070728;28;20059;-53
2022/09/02 08:35:25;;;;;;;3.42;1.48;;;30.70;59.10;;;;;;5070809;28;20024;-53
2022/09/02 08:37:51;;;;;;;5.00;1.48;;;30.80;58.20;;;;;;5070713;28;20332;-53
2022/09/02 08:40:20;;;;;;;4.40;1.67;;;31.40;57.90;;;;;;5069170;28;20032;-53
2022/09/02 08:42:53;;;;;;;1.88;1.50;;;31.60;56.70;;;;;;5072438;28;20027;-55
2022/09/02 08:45:27;;;;;;;5.18;1.77;;;32.60;53.60;;;;;;5077755;28;20025;-55
2022/09/02 08:48:14;;;;;;;1.70;1.00;;;32.40;53.00;;;;;;5091130;28;20070;-55
2022/09/02 08:50:43;;;;;;;3.20;1.52;;;32.90;51.90;;;;;;5082889;28;20035;-55
2022/09/02 08:53:26;;;;;;;2.22;1.33;;;33.00;51.00;;;;;;5087165;28;20050;-54
2022/09/02 08:55:55;;;;;;;3.88;1.30;;;33.00;51.40;;;;;;5090760;28;20017;-54
2022/09/02 08:58:27;;;;;;;4.00;1.63;;;33.50;50.50;;;;;;5090714;28;20035;-55
2022/09/02 09:01:19;;;;;;;2.35;1.33;;;33.30;51.90;;;;;;5089899;28;20094;-55
2022/09/02 09:04:03;;;;;;;4.13;1.55;;;33.40;50.10;;;;;;5090515;28;20047;-54
2022/09/02 09:07:02;;;;;;;2.55;1.55;;;34.00;50.20;;;;;;5090778;28;20078;-54
2022/09/02 09:09:46;;;;;;;2.47;1.35;;;34.40;49.50;;;;;;5075841;28;20116;-54
2022/09/02 09:12:38;;;;;;;5.55;1.48;;;34.90;47.60;;;;;;5053966;28;20029;-53
2022/09/02 09:15:15;;;;;;;10.27;1.55;;;35.60;46.70;;;;;;5052532;28;20078;-55
2022/09/02 09:17:50;;;;;;;3.15;1.17;;;36.10;46.40;;;;;;5069553;28;20029;-55
2022/09/02 09:20:40;;;;;;;2.33;1.25;;;35.70;45.70;;;;;;5075956;28;20100;-54
2022/09/02 09:23:19;;;;;;;8.52;1.95;;;35.40;45.90;;;;;;5070028;28;20510;-54
2022/09/02 09:25:47;;;;;;;4.57;1.60;;;35.70;46.00;;;;;;5069852;28;20061;-54
2022/09/02 09:28:13;;;;;;;3.97;1.50;;;36.20;45.50;;;;;;5068551;28;20028;-54
2022/09/02 09:30:38;;;;;;;2.92;1.02;;;36.70;44.20;;;;;;5069384;28;20021;-55
2022/09/02 09:33:04;;;;;;;2.60;1.30;;;37.10;45.00;;;;;;5069067;28;20024;-54
2022/09/02 09:35:52;;;;;;;2.58;1.20;;;36.90;43.10;;;;;;5079533;28;20044;-54
2022/09/02 09:38:32;;;;;;;2.88;1.10;;;36.90;43.70;;;;;;5089601;28;20414;-56
2022/09/02 09:41:20;;;;;;;1.17;1.05;;;36.60;43.90;;;;;;5088924;28;20054;-54
2022/09/02 09:43:46;;;;;;;3.30;1.10;;;37.80;41.90;;;;;;5083682;28;20051;-55
2022/09/02 09:46:31;;;;;;;1.35;1.00;;;38.00;40.70;;;;;;5081517;28;20031;-55
2022/09/02 09:48:56;;;;;;;1.00;0.90;;;38.60;40.10;;;;;;5089469;28;20024;-55
2022/09/02 09:51:22;;;;;;;1.10;1.00;;;38.00;39.70;;;;;;5088769;28;20111;-55
2022/09/02 09:53:49;;;;;;;5.05;0.85;;;38.00;40.50;;;;;;5079682;28;20050;-54
2022/09/02 09:56:14;;;;;;;1.20;0.90;;;37.10;40.20;;;;;;5080784;28;20302;-53
2022/09/02 09:58:40;;;;;;;5.15;1.20;;;36.20;40.90;;;;;;5080347;28;20044;-53
2022/09/02 10:01:13;;;;;;;4.07;1.20;;;36.10;41.60;;;;;;5080137;28;20058;-53
2022/09/02 10:03:55;;;;;;;3.75;1.02;;;37.10;41.00;;;;;;5080520;28;20043;-54
2022/09/02 10:06:36;;;;;;;4.28;1.15;;;38.10;39.30;;;;;;5081012;28;20195;-54
2022/09/02 10:09:12;;;;;;;3.95;1.10;;;38.40;38.10;;;;;;5089105;28;20012;-54
2022/09/02 10:11:52;;;;;;;2.65;1.00;;;38.10;39.20;;;;;;5070282;28;20073;-53
2022/09/02 10:14:17;;;;;;;;;;;37.70;37.90;;;;;;5068982;28;20016;-54
2022/09/02 10:16:56;;;;;;;2.13;1.02;;;38.40;38.50;;;;;;5068948;28;19905;-55
2022/09/02 10:19:29;;;;;;;2.72;0.85;;;38.00;38.40;;;;;;5068492;28;20400;-55
2022/09/02 10:22:11;;;;;;;7.90;1.25;;;38.50;37.90;;;;;;5068152;28;20099;-55
2022/09/02 10:24:55;;;;;;;5.07;1.33;;;36.10;38.00;;;;;;5068970;28;20321;-55
2022/09/02 10:27:39;;;;;;;2.83;0.90;;;35.10;40.30;;;;;;5068683;28;20106;-55
2022/09/02 10:30:13;;;;;;;1.42;1.02;;;36.70;39.50;;;;;;5068692;28;20028;-55
2022/09/02 10:32:45;;;;;;;2.20;0.88;;;37.00;38.00;;;;;;5064484;28;20021;-54
2022/09/02 10:35:31;;;;;;;6.70;1.10;;;37.60;37.70;;;;;;5073372;28;20015;-54
2022/09/02 10:38:08;;;;;;;2.47;0.88;;;37.50;37.30;;;;;;5087477;28;20035;-54
2022/09/02 10:40:51;;;;;;;3.15;1.00;;;38.10;37.30;;;;;;5079441;28;20020;-55
2022/09/02 10:43:44;;;;;;;5.57;1.10;;;37.60;36.50;;;;;;5088462;28;20057;-54
2022/09/02 10:46:16;;;;;;;1.25;1.00;;;37.30;37.60;;;;;;5088540;28;20307;-55
2022/09/02 10:49:05;;;;;;;2.40;1.20;;;37.10;37.50;;;;;;5088644;28;20440;-54
2022/09/02 10:51:44;;;;;;;4.55;1.00;;;37.70;37.20;;;;;;5087920;28;20028;-54
2022/09/02 10:54:37;;;;;;;2.40;0.75;;;37.30;36.80;;;;;;5087139;28;20028;-54
2022/09/02 10:57:11;;;;;;;2.05;0.80;;;37.90;36.20;;;;;;5088630;28;20028;-54
2022/09/02 11:00:03;;;;;;;3.95;1.00;;;38.40;36.20;;;;;;5088561;28;20020;-54
2022/09/02 11:02:51;;;;;;;3.47;0.95;;;38.20;36.50;;;;;;5088056;28;20154;-54
2022/09/02 11:05:22;;;;;;;3.00;0.80;;;38.50;35.70;;;;;;5081886;28;20036;-54
2022/09/02 11:08:05;;;;;;;2.65;0.90;;;36.30;36.60;;;;;;5088299;28;20112;-54
2022/09/02 11:10:38;;;;;;;2.88;1.10;;;36.70;37.40;;;;;;5075372;28;20128;-55
2022/09/02 11:13:13;;;;;;;2.85;1.00;;;36.40;37.90;;;;;;5067811;28;20036;-55
2022/09/02 11:15:44;;;;;;;2.25;0.70;;;36.70;36.90;;;;;;5068423;28;20020;-55
2022/09/02 11:18:31;;;;;;;3.00;1.13;;;37.10;36.60;;;;;;5079842;28;20499;-55
2022/09/02 11:21:23;;;;;;;3.30;0.95;;;37.30;36.60;;;;;;5087936;28;20448;-55
2022/09/02 11:24:01;;;;;;;2.15;1.10;;;36.60;36.40;;;;;;5088365;28;20023;-55
2022/09/02 11:26:40;;;;;;;1.80;0.80;;;37.10;36.30;;;;;;5087513;28;20370;-55
2022/09/02 11:29:10;;;;;;;8.50;1.13;;;37.20;37.90;;;;;;5088393;28;20027;-55
2022/09/02 11:32:04;;;;;;;1.15;0.80;;;36.70;37.20;;;;;;5085956;28;20032;-55
2022/09/02 11:34:33;;;;;;;1.15;0.82;;;37.00;37.00;;;;;;5088185;28;20395;-55
2022/09/02 11:37:03;;;;;;;3.03;1.00;;;37.40;37.20;;;;;;5088346;28;20047;-56
2022/09/02 11:39:40;;;;;;;2.25;0.90;;;37.40;35.70;;;;;;5088062;28;20499;-56
2022/09/02 11:42:54;;;;;;;1.35;1.13;;;36.10;35.50;;;;;;5087460;28;20470;-55
2022/09/02 11:45:45;;;;;;;2.92;0.93;;;36.30;37.50;;;;;;5047161;28;20036;-56
2022/09/02 11:48:42;;;;;;;0.90;0.60;;;37.10;36.60;;;;;;5088196;28;20462;-56
2022/09/02 11:51:38;;;;;;;1.90;1.35;;;37.10;36.70;;;;;;5071527;28;20016;-56
2022/09/02 11:54:07;;;;;;;4.50;1.25;;;37.20;36.50;;;;;;5047896;28;20025;-56
2022/09/02 11:56:39;;;;;;;2.33;0.80;;;36.40;36.00;;;;;;5047887;28;20013;-55
2022/09/02 11:59:06;;;;;;;2.05;1.02;;;33.80;36.70;;;;;;5050734;28;20396;-55
2022/09/02 12:01:52;;;;;;;3.03;0.98;;;32.40;39.10;;;;;;5051118;28;20025;-56
2022/09/02 12:04:24;;;;;;;1.02;0.70;;;30.60;40.70;;;;;;5051891;28;20021;-55
2022/09/02 12:07:07;;;;;;;1.90;1.00;;;29.70;42.30;;;;;;5051440;28;20055;-55
2022/09/02 12:09:45;;;;;;;1.83;1.20;;;29.00;43.60;;;;;;5051822;28;20024;-55
2022/09/02 12:12:38;;;;;;;2.05;1.10;;;28.70;43.60;;;;;;5069617;28;20485;-55
2022/09/02 12:15:03;;;;;;;5.57;0.70;;;28.90;44.00;;;;;;5041499;28;20637;-54
2022/09/02 12:17:37;;;;;;;4.18;1.27;;;28.90;43.80;;;;;;5069803;28;20020;-54
2022/09/02 12:20:08;;;;;;;3.00;1.20;;;28.30;44.30;;;;;;5071393;28;20020;-54
2022/09/02 12:22:39;;;;;;;6.85;1.10;;;28.00;45.40;;;;;;5081618;28;20035;-54
2022/09/02 12:25:24;;;;;;;1.80;1.00;;;27.70;45.00;;;;;;5091780;28;20020;-54
2022/09/02 12:28:08;;;;;;;1.75;1.00;;;27.30;45.70;;;;;;5084344;28;20101;-55
2022/09/02 12:31:07;;;;;;;0.90;0.80;;;27.30;46.20;;;;;;5080409;28;20364;-54
2022/09/02 12:33:37;;;;;;;4.85;0.95;;;27.80;46.30;;;;;;5055480;28;20618;-54
2022/09/02 12:36:05;;;;;;;2.80;0.80;;;28.10;46.20;;;;;;5081763;28;20020;-55
2022/09/02 12:38:31;;;;;;;0.95;0.88;;;28.10;45.40;;;;;;5090502;28;20103;-55
2022/09/02 12:41:05;;;;;;;1.85;1.02;;;27.90;46.10;;;;;;5088679;28;20021;-54
2022/09/02 12:43:52;;;;;;;5.28;0.90;;;28.20;45.20;;;;;;5082125;28;20028;-55
2022/09/02 12:46:49;;;;;;;2.92;1.10;;;28.00;45.10;;;;;;5091810;28;20425;-54
2022/09/02 12:49:17;;;;;;;2.80;0.90;;;27.50;44.90;;;;;;5050281;28;20021;-54
2022/09/02 12:52:01;;;;;;;1.98;0.98;;;27.30;45.70;;;;;;5070449;28;20028;-55
2022/09/02 12:54:40;;;;;;;3.28;0.90;;;27.50;45.80;;;;;;5070580;28;20060;-54
2022/09/02 12:57:07;;;;;;;2.22;1.23;;;27.80;45.00;;;;;;5070803;28;20029;-54
2022/09/02 12:59:37;;;;;;;6.57;1.00;;;27.40;44.90;;;;;;5070297;28;20501;-53
2022/09/02 13:02:13;;;;;;;2.35;1.00;;;27.10;46.90;;;;;;5070599;28;20025;-55
2022/09/02 13:04:59;;;;;;;2.28;0.93;;;26.80;46.10;;;;;;5070034;28;20024;-53